createdAt,value
2018-07-03T00:01:49.013Z,4.50
2018-07-03T00:04:20.527Z,4.47
2018-07-03T00:06:49.662Z,4.25
2018-07-03T00:09:17.991Z,3.80
2018-07-03T00:11:48.890Z,3.75
2018-07-03T00:14:17.539Z,3.05
2018-07-03T00:17:03.993Z,3.47
2018-07-03T00:19:32.197Z,4.47
2018-07-03T00:22:00.577Z,5.40
2018-07-03T00:24:29.463Z,5.20
2018-07-03T00:26:57.898Z,5.45
2018-07-03T00:29:25.948Z,5.37
2018-07-03T00:31:54.361Z,5.40
2018-07-03T00:34:22.898Z,4.33
2018-07-03T00:36:51.323Z,5.30
2018-07-03T00:39:21.495Z,5.10
2018-07-03T00:41:47.763Z,4.40
2018-07-03T00:44:15.980Z,4.43
2018-07-03T00:46:44.427Z,4.47
2018-07-03T00:49:12.459Z,4.50
2018-07-03T00:51:40.798Z,4.83
2018-07-03T00:54:09.264Z,4.20
2018-07-03T00:56:37.316Z,4.10
2018-07-03T00:59:09.122Z,3.70
2018-07-03T01:01:37.458Z,4.40
2018-07-03T01:04:05.806Z,4.13
2018-07-03T01:06:34.101Z,4.78
2018-07-03T01:09:02.573Z,4.20
2018-07-03T01:11:31.037Z,4.70
2018-07-03T01:13:59.324Z,4.40
2018-07-03T01:16:27.662Z,7.60
2018-07-03T01:18:55.947Z,8.10
2018-07-03T01:21:24.266Z,8.40
2018-07-03T01:23:52.637Z,6.80
2018-07-03T01:26:20.943Z,10.05
2018-07-03T01:28:49.291Z,11.55
2018-07-03T01:31:17.617Z,10.30
2018-07-03T01:33:45.885Z,10.88
2018-07-03T01:36:14.316Z,10.93
2018-07-03T01:38:42.365Z,10.80
2018-07-03T01:41:10.713Z,11.27
2018-07-03T01:43:38.770Z,11.87
2018-07-03T01:46:07.198Z,11.03
2018-07-03T01:48:35.591Z,11.90
2018-07-03T01:51:06.714Z,10.23
2018-07-03T01:53:35.024Z,11.43
2018-07-03T01:56:04.755Z,11.13
2018-07-03T01:58:33.062Z,10.43
2018-07-03T02:01:02.110Z,10.30
2018-07-03T02:03:30.500Z,11.33
2018-07-03T02:05:58.796Z,10.40
2018-07-03T02:08:27.126Z,9.90
2018-07-03T02:10:55.419Z,9.47
2018-07-03T02:13:23.768Z,8.40
2018-07-03T02:15:52.132Z,8.93
2018-07-03T02:18:20.445Z,10.70
2018-07-03T02:20:48.761Z,9.70
2018-07-03T02:23:17.103Z,8.50
2018-07-03T02:25:45.403Z,8.80
2018-07-03T02:28:13.918Z,8.43
2018-07-03T02:30:41.991Z,8.80
2018-07-03T02:33:10.064Z,8.23
2018-07-03T02:35:38.162Z,8.57
2018-07-03T02:38:06.867Z,9.30
2018-07-03T02:40:35.269Z,9.90
2018-07-03T02:43:03.633Z,8.83
2018-07-03T02:45:32.010Z,8.90
2018-07-03T02:48:00.343Z,9.63
2018-07-03T02:50:28.674Z,8.93
2018-07-03T02:52:56.994Z,7.83
2018-07-03T02:55:26.283Z,8.47
2018-07-03T02:57:54.600Z,8.10
2018-07-03T03:00:22.926Z,7.87
2018-07-03T03:02:51.242Z,8.20
2018-07-03T03:05:19.271Z,7.93
2018-07-03T03:07:47.650Z,8.30
2018-07-03T03:10:15.983Z,9.10
2018-07-03T03:12:44.263Z,10.58
2018-07-03T03:15:12.727Z,8.63
2018-07-03T03:17:41.031Z,8.10
2018-07-03T03:20:09.376Z,7.73
2018-07-03T03:22:37.417Z,7.37
2018-07-03T03:25:05.835Z,8.07
2018-07-03T03:27:34.225Z,8.90
2018-07-03T03:30:02.561Z,7.23
2018-07-03T03:32:30.930Z,7.13
2018-07-03T03:34:59.177Z,7.07
2018-07-03T03:37:27.595Z,7.60
2018-07-03T03:39:57.268Z,7.53
2018-07-03T03:42:25.562Z,7.97
2018-07-03T03:44:53.895Z,8.07
2018-07-03T03:47:22.254Z,7.63
2018-07-03T03:49:50.300Z,7.30
2018-07-03T03:52:18.644Z,7.20
2018-07-03T03:54:47.060Z,7.43
2018-07-03T03:57:15.377Z,8.10
2018-07-03T03:59:43.699Z,7.90
2018-07-03T04:02:12.095Z,10.00
2018-07-03T04:04:40.114Z,8.13
2018-07-03T04:07:08.244Z,8.30
2018-07-03T04:09:36.564Z,7.73
2018-07-03T04:12:04.892Z,7.10
2018-07-03T04:14:33.264Z,7.60
2018-07-03T04:17:01.580Z,7.50
2018-07-03T04:19:29.610Z,7.93
2018-07-03T04:21:57.938Z,7.17
2018-07-03T04:24:26.005Z,8.33
2018-07-03T04:26:54.050Z,7.37
2018-07-03T04:29:22.383Z,8.13
2018-07-03T04:31:50.665Z,9.75
2018-07-03T04:34:18.967Z,8.30
2018-07-03T04:36:47.282Z,7.83
2018-07-03T04:39:15.575Z,7.87
2018-07-03T04:41:43.895Z,8.27
2018-07-03T04:44:12.220Z,8.63
2018-07-03T04:46:40.277Z,8.07
2018-07-03T04:49:08.327Z,8.50
2018-07-03T04:51:36.654Z,8.07
2018-07-03T04:54:05.034Z,10.70
2018-07-03T04:56:33.364Z,8.47
2018-07-03T04:59:02.271Z,8.20
2018-07-03T05:01:31.451Z,8.90
2018-07-03T05:03:59.761Z,8.63
2018-07-03T05:06:28.126Z,11.28
2018-07-03T05:08:56.176Z,9.13
2018-07-03T05:11:24.541Z,9.00
2018-07-03T05:13:53.084Z,11.70
2018-07-03T05:16:21.390Z,9.27
2018-07-03T05:18:49.695Z,9.43
2018-07-03T05:21:18.061Z,8.83
2018-07-03T05:23:46.391Z,8.90
2018-07-03T05:26:14.825Z,8.93
2018-07-03T05:28:43.161Z,9.53
2018-07-03T05:31:11.514Z,9.75
2018-07-03T05:33:39.556Z,8.17
2018-07-03T05:36:07.975Z,7.73
2018-07-03T05:38:36.266Z,7.73
2018-07-03T05:41:05.702Z,7.27
2018-07-03T05:43:34.057Z,6.97
2018-07-03T05:46:02.594Z,6.73
2018-07-03T05:48:30.972Z,6.57
2018-07-03T05:50:59.376Z,6.47
2018-07-03T05:53:27.481Z,7.20
2018-07-03T05:55:55.491Z,6.20
2018-07-03T05:58:23.865Z,6.13
2018-07-03T06:00:52.171Z,6.97
2018-07-03T06:03:20.318Z,6.03
2018-07-03T06:05:48.727Z,5.60
2018-07-03T06:08:16.791Z,5.60
2018-07-03T06:10:44.866Z,5.43
2018-07-03T06:13:12.991Z,5.60
2018-07-03T06:15:41.348Z,5.80
2018-07-03T06:18:11.166Z,5.20
2018-07-03T06:20:41.018Z,4.87
2018-07-03T06:23:10.854Z,4.87
2018-07-03T06:25:40.789Z,4.33
2018-07-03T06:28:09.762Z,3.50
2018-07-03T06:30:37.803Z,3.40
2018-07-03T06:33:06.222Z,3.70
2018-07-03T06:35:34.323Z,3.60
2018-07-03T06:38:02.669Z,2.95
2018-07-03T06:40:30.694Z,2.67
2018-07-03T06:42:59.081Z,2.80
2018-07-03T06:45:28.491Z,2.47
2018-07-03T06:48:00.423Z,2.65
2018-07-03T06:50:28.797Z,2.27
2018-07-03T06:52:57.119Z,2.40
2018-07-03T06:55:26.887Z,2.97
2018-07-03T06:57:55.236Z,3.37
2018-07-03T07:00:23.661Z,2.80
2018-07-03T07:02:52.013Z,3.02
2018-07-03T07:05:20.422Z,2.87
2018-07-03T07:07:48.786Z,2.97
2018-07-03T07:10:17.141Z,3.02
2018-07-03T07:12:45.522Z,2.50
2018-07-03T07:15:13.861Z,2.63
2018-07-03T07:17:42.206Z,3.20
2018-07-03T07:20:11.754Z,3.62
2018-07-03T07:22:39.814Z,3.30
2018-07-03T07:25:08.230Z,2.42
2018-07-03T07:27:36.317Z,3.45
2018-07-03T07:30:06.068Z,1.90
2018-07-03T07:32:38.355Z,2.10
2018-07-03T07:35:07.802Z,2.05
2018-07-03T07:37:36.188Z,2.53
2018-07-03T07:40:04.456Z,2.45
2018-07-03T07:42:33.216Z,1.60
2018-07-03T07:45:01.595Z,1.70
2018-07-03T07:47:29.620Z,1.90
2018-07-03T07:49:59.958Z,2.23
2018-07-03T07:52:26.371Z,1.80
2018-07-03T07:54:54.703Z,2.12
2018-07-03T07:57:23.008Z,2.05
2018-07-03T07:59:51.322Z,1.80
2018-07-03T08:02:19.632Z,1.67
2018-07-03T08:04:47.772Z,1.53
2018-07-03T08:07:16.085Z,2.10
2018-07-03T08:09:44.134Z,1.82
2018-07-03T08:12:12.900Z,1.70
2018-07-03T08:14:41.258Z,1.65
2018-07-03T08:17:09.686Z,1.92
2018-07-03T08:19:38.070Z,1.55
2018-07-03T08:22:09.609Z,1.70
2018-07-03T08:24:37.912Z,1.10
2018-07-03T08:27:06.014Z,1.27
2018-07-03T08:29:34.400Z,1.10
2018-07-03T08:32:02.725Z,1.32
2018-07-03T08:34:32.133Z,1.20
2018-07-03T08:37:02.107Z,1.12
2018-07-03T08:39:30.467Z,1.10
2018-07-03T08:41:59.920Z,1.30
2018-07-03T08:44:30.029Z,1.22
2018-07-03T08:46:58.389Z,1.40
2018-07-03T08:49:32.946Z,1.30
2018-07-03T08:52:01.440Z,1.40
2018-07-03T08:54:29.405Z,1.60
2018-07-03T08:56:57.815Z,1.30
2018-07-03T08:59:25.846Z,1.52
2018-07-03T09:01:54.200Z,0.98
2018-07-03T09:04:22.606Z,1.42
2018-07-03T09:06:51.767Z,1.10
2018-07-03T09:09:20.135Z,1.10
2018-07-03T09:11:48.532Z,1.42
2018-07-03T09:14:16.902Z,1.60
2018-07-03T09:16:45.221Z,1.50
2018-07-03T09:19:13.592Z,1.42
2018-07-03T09:21:42.363Z,1.60
2018-07-03T09:24:12.787Z,1.30
2018-07-03T09:26:41.453Z,1.20
2018-07-03T09:29:12.502Z,1.12
2018-07-03T09:31:40.859Z,2.77
2018-07-03T09:34:10.136Z,1.00
2018-07-03T09:36:38.179Z,1.20
2018-07-03T09:39:09.482Z,1.30
2018-07-03T09:41:38.498Z,1.10
2018-07-03T09:44:08.118Z,1.45
2018-07-03T09:46:36.422Z,1.00
2018-07-03T09:49:06.786Z,1.07
2018-07-03T09:51:35.085Z,0.95
2018-07-03T09:54:03.430Z,1.20
2018-07-03T09:56:32.559Z,1.07
2018-07-03T09:59:00.917Z,1.00
2018-07-03T10:01:29.322Z,0.90
2018-07-03T10:03:57.694Z,0.80
2018-07-03T10:06:26.033Z,0.90
2018-07-03T10:08:54.108Z,1.25
2018-07-03T10:11:25.474Z,1.90
2018-07-03T10:13:53.807Z,1.00
2018-07-03T10:16:22.180Z,0.95
2018-07-03T10:18:50.547Z,1.00
2018-07-03T10:21:18.925Z,1.00
2018-07-03T10:23:47.241Z,1.30
2018-07-03T10:26:15.357Z,1.02
2018-07-03T10:28:43.739Z,0.98
2018-07-03T10:31:11.807Z,1.12
2018-07-03T10:33:40.177Z,1.17
2018-07-03T10:36:11.455Z,0.98
2018-07-03T10:38:39.753Z,1.40
2018-07-03T10:41:08.386Z,1.25
2018-07-03T10:43:38.423Z,1.10
2018-07-03T10:46:06.789Z,1.40
2018-07-03T10:48:35.184Z,1.00
2018-07-03T10:51:03.260Z,1.17
2018-07-03T10:53:31.638Z,1.00
2018-07-03T10:56:01.320Z,1.40
2018-07-03T10:58:31.293Z,1.07
2018-07-03T11:00:59.764Z,1.27
2018-07-03T11:03:28.115Z,1.10
2018-07-03T11:05:56.511Z,1.10
2018-07-03T11:08:28.207Z,1.00
2018-07-03T11:10:56.391Z,1.35
2018-07-03T11:13:26.197Z,1.20
2018-07-03T11:15:54.542Z,1.30
2018-07-03T11:18:22.951Z,1.47
2018-07-03T11:20:51.281Z,1.30
2018-07-03T11:23:19.590Z,1.10
2018-07-03T11:25:49.141Z,1.17
2018-07-03T11:28:17.489Z,1.15
2018-07-03T11:30:45.834Z,1.07
2018-07-03T11:33:14.381Z,1.82
2018-07-03T11:35:42.746Z,1.17
2018-07-03T11:38:10.796Z,1.12
2018-07-03T11:40:39.156Z,1.65
2018-07-03T11:43:07.528Z,1.55
2018-07-03T11:45:35.937Z,1.60
2018-07-03T11:48:04.312Z,1.40
2018-07-03T11:50:32.652Z,1.15
2018-07-03T11:53:00.962Z,1.30
2018-07-03T11:55:29.314Z,1.20
2018-07-03T11:57:59.152Z,1.47
2018-07-03T12:00:27.590Z,1.70
2018-07-03T12:02:55.984Z,1.20
2018-07-03T12:05:24.328Z,1.55
2018-07-03T12:07:52.453Z,1.80
2018-07-03T12:10:20.823Z,1.80
2018-07-03T12:12:49.212Z,1.77
2018-07-03T12:15:17.596Z,1.70
2018-07-03T12:17:45.959Z,1.90
2018-07-03T12:20:14.325Z,1.90
2018-07-03T12:22:42.708Z,1.85
2018-07-03T12:25:11.077Z,1.95
2018-07-03T12:27:39.447Z,2.02
2018-07-03T12:30:10.617Z,2.20
2018-07-03T12:32:38.931Z,2.17
2018-07-03T12:35:12.954Z,1.98
2018-07-03T12:37:41.092Z,2.58
2018-07-03T12:40:10.897Z,2.98
2018-07-03T12:42:44.932Z,2.98
2018-07-03T12:45:13.283Z,3.17
2018-07-03T12:47:41.629Z,3.67
2018-07-03T12:50:09.716Z,4.15
2018-07-03T12:52:38.055Z,4.30
2018-07-03T12:55:06.419Z,4.45
2018-07-03T12:57:34.768Z,4.60
2018-07-03T13:00:03.242Z,5.12
2018-07-03T13:02:31.576Z,5.40
2018-07-03T13:04:59.667Z,6.35
2018-07-03T13:07:28.980Z,5.83
2018-07-03T13:09:57.379Z,6.03
2018-07-03T13:12:25.757Z,6.00
2018-07-03T13:14:54.040Z,6.12
2018-07-03T13:17:22.491Z,6.87
2018-07-03T13:19:50.533Z,6.87
2018-07-03T13:22:18.685Z,6.80
2018-07-03T13:24:48.093Z,7.35
2018-07-03T13:27:16.422Z,8.00
2018-07-03T13:29:44.725Z,7.25
2018-07-03T13:32:13.124Z,7.50
2018-07-03T13:34:41.473Z,7.00
2018-07-03T13:37:09.891Z,6.70
2018-07-03T13:39:38.283Z,6.83
2018-07-03T13:42:06.421Z,6.85
2018-07-03T13:44:34.680Z,7.90
2018-07-03T13:47:03.422Z,8.58
2018-07-03T13:49:33.314Z,8.63
2018-07-03T13:52:01.754Z,8.90
2018-07-03T13:54:31.362Z,8.48
2018-07-03T13:56:59.679Z,8.98
2018-07-03T13:59:29.000Z,8.35
2018-07-03T14:01:57.127Z,8.20
2018-07-03T14:04:25.474Z,8.90
2018-07-03T14:06:53.770Z,8.73
2018-07-03T14:09:22.162Z,9.60
2018-07-03T14:11:50.508Z,8.60
2018-07-03T14:14:18.885Z,9.25
2018-07-03T14:16:47.859Z,9.35
2018-07-03T14:19:16.247Z,9.95
2018-07-03T14:21:44.370Z,10.18
2018-07-03T14:24:12.655Z,10.13
2018-07-03T14:26:40.991Z,10.23
2018-07-03T14:29:10.798Z,10.75
2018-07-03T14:31:39.174Z,10.32
2018-07-03T14:34:07.431Z,10.75
2018-07-03T14:36:38.297Z,10.45
2018-07-03T14:39:09.931Z,10.90
2018-07-03T14:41:38.059Z,10.35
2018-07-03T14:44:11.365Z,11.03
2018-07-03T14:46:49.143Z,10.65
2018-07-03T14:49:18.621Z,11.35
2018-07-03T14:51:50.206Z,11.22
2018-07-03T14:54:20.223Z,11.63
2018-07-03T14:56:50.895Z,11.38
2018-07-03T14:59:19.357Z,11.60
2018-07-03T15:01:48.169Z,10.57
2018-07-03T15:04:16.497Z,10.65
2018-07-03T15:06:55.281Z,10.70
2018-07-03T15:09:23.347Z,10.40
2018-07-03T15:11:51.401Z,10.13
2018-07-03T15:14:19.819Z,10.38
2018-07-03T15:16:51.451Z,10.98
2018-07-03T15:19:39.613Z,10.38
2018-07-03T15:22:07.959Z,10.75
2018-07-03T15:24:38.441Z,10.25
2018-07-03T15:27:06.889Z,19.00
2018-07-03T15:29:36.645Z,20.23
2018-07-03T15:32:06.757Z,15.90
2018-07-03T15:34:36.490Z,16.45
2018-07-03T15:37:04.950Z,16.20
2018-07-03T15:39:33.293Z,13.43
2018-07-03T15:42:03.532Z,18.73
2018-07-03T15:45:08.076Z,14.93
2018-07-03T15:47:37.737Z,14.95
2018-07-03T15:50:04.856Z,12.58
2018-07-03T15:52:33.418Z,10.10
2018-07-03T15:55:01.522Z,9.38
2018-07-03T15:57:31.095Z,10.13
2018-07-03T16:00:02.213Z,9.60
2018-07-03T16:02:33.452Z,7.80
2018-07-03T16:05:38.072Z,8.60
2018-07-03T16:08:14.443Z,8.83
2018-07-03T16:14:11.124Z,8.28
2018-07-03T16:16:47.956Z,9.33
2018-07-03T16:19:35.323Z,8.35
2018-07-03T16:22:04.828Z,7.45
2018-07-03T16:24:34.435Z,8.08
2018-07-03T16:27:06.530Z,7.20
2018-07-03T16:29:35.163Z,6.55
2018-07-03T16:32:04.663Z,6.55
2018-07-03T16:34:35.338Z,6.20
2018-07-03T16:37:16.048Z,6.35
2018-07-03T16:39:55.235Z,6.05
2018-07-03T16:42:24.959Z,5.85
2018-07-03T16:44:53.314Z,5.80
2018-07-03T16:47:21.797Z,6.00
2018-07-03T16:49:51.619Z,5.90
2018-07-03T16:52:20.946Z,5.60
2018-07-03T16:54:49.369Z,9.23
2018-07-03T16:57:19.119Z,5.50
2018-07-03T16:59:47.548Z,5.75
2018-07-03T17:02:17.442Z,5.75
2018-07-03T17:04:57.603Z,5.37
2018-07-03T17:07:31.847Z,5.50
2018-07-03T17:10:10.227Z,5.45
2018-07-03T17:15:23.765Z,4.62
2018-07-03T17:18:00.884Z,4.65
2018-07-03T17:20:29.240Z,4.45
2018-07-03T17:22:59.296Z,4.40
2018-07-03T17:25:28.301Z,4.65
2018-07-03T17:27:57.948Z,4.85
2018-07-03T17:30:27.708Z,4.55
2018-07-03T17:32:56.337Z,4.12
2018-07-03T17:35:26.263Z,4.15
2018-07-03T17:37:57.808Z,3.87
2018-07-03T17:41:04.148Z,3.77
2018-07-03T17:44:20.321Z,4.00
2018-07-03T17:46:48.442Z,3.50
2018-07-03T17:49:17.886Z,4.00
2018-07-03T17:51:46.276Z,4.28
2018-07-03T17:54:16.696Z,4.30
2018-07-03T17:56:45.162Z,4.30
2018-07-03T17:59:15.749Z,4.03
2018-07-03T18:01:43.849Z,3.83
2018-07-03T18:04:13.155Z,3.42
2018-07-03T18:06:41.583Z,3.50
2018-07-03T18:09:10.663Z,3.52
2018-07-03T18:11:39.134Z,3.65
2018-07-03T18:14:07.902Z,3.45
2018-07-03T18:16:37.623Z,3.35
2018-07-03T18:19:47.761Z,3.40
2018-07-03T18:22:24.860Z,3.72
2018-07-03T18:24:55.735Z,3.52
2018-07-03T18:27:23.476Z,3.52
2018-07-03T18:29:51.863Z,3.20
2018-07-03T18:32:26.753Z,2.75
2018-07-03T18:34:58.275Z,3.25
2018-07-03T18:37:27.998Z,3.00
2018-07-03T18:39:59.553Z,2.65
2018-07-03T18:42:34.025Z,2.72
2018-07-03T18:45:04.489Z,2.90
2018-07-03T18:47:39.030Z,2.80
2018-07-03T18:50:13.866Z,2.45
2018-07-03T18:52:44.393Z,2.67
2018-07-03T18:55:28.028Z,2.80
2018-07-03T18:58:07.219Z,2.35
2018-07-03T19:04:03.084Z,2.30
2018-07-03T19:06:34.896Z,2.70
2018-07-03T19:09:04.497Z,2.67
2018-07-03T19:11:34.969Z,2.50
2018-07-03T19:14:03.188Z,2.60
2018-07-03T19:16:36.326Z,2.70
2018-07-03T19:19:09.241Z,2.72
2018-07-03T19:21:37.372Z,2.47
2018-07-03T19:24:05.977Z,2.40
2018-07-03T19:26:39.717Z,2.37
2018-07-03T19:29:11.953Z,2.70
2018-07-03T19:31:39.853Z,2.95
2018-07-03T19:34:10.560Z,2.90
2018-07-03T19:36:38.751Z,3.15
2018-07-03T19:39:09.574Z,3.02
2018-07-03T19:41:38.014Z,3.10
2018-07-03T19:44:09.860Z,3.30
2018-07-03T19:46:37.977Z,3.45
2018-07-03T19:49:08.906Z,3.40
2018-07-03T19:51:37.568Z,3.52
2018-07-03T19:54:06.182Z,4.08
2018-07-03T19:56:36.216Z,3.55
2018-07-03T19:59:04.874Z,3.60
2018-07-03T20:01:39.280Z,3.77
2018-07-03T20:04:10.259Z,3.30
2018-07-03T20:06:39.171Z,3.50
2018-07-03T20:09:12.629Z,3.72
2018-07-03T20:11:44.054Z,3.90
2018-07-03T20:14:12.398Z,3.90
2018-07-03T20:16:41.069Z,3.80
2018-07-03T20:19:13.537Z,4.25
2018-07-03T20:21:43.852Z,4.22
2018-07-03T20:24:12.043Z,4.28
2018-07-03T20:26:40.708Z,4.20
2018-07-03T20:29:09.841Z,3.83
2018-07-03T20:31:39.478Z,4.03
2018-07-03T20:34:08.464Z,4.22
2018-07-03T20:36:38.134Z,3.67
2018-07-03T20:39:10.337Z,3.65
2018-07-03T20:41:39.867Z,3.67
2018-07-03T20:44:09.613Z,4.30
2018-07-03T20:46:37.676Z,4.78
2018-07-03T20:49:05.888Z,4.65
2018-07-03T20:51:44.989Z,4.10
2018-07-03T20:54:13.421Z,4.12
2018-07-03T20:56:41.797Z,3.87
2018-07-03T20:59:11.226Z,4.00
2018-07-03T21:01:41.335Z,3.58
2018-07-03T21:04:09.852Z,4.15
2018-07-03T21:06:39.151Z,4.50
2018-07-03T21:09:11.000Z,4.00
2018-07-03T21:11:39.462Z,3.65
2018-07-03T21:14:09.408Z,4.45
2018-07-03T21:16:37.494Z,4.08
2018-07-03T21:19:07.356Z,3.90
2018-07-03T21:21:37.273Z,4.17
2018-07-03T21:24:06.806Z,4.12
2018-07-03T21:27:18.335Z,4.25
2018-07-03T21:29:51.377Z,4.03
2018-07-03T21:32:19.777Z,4.65
2018-07-03T21:34:49.627Z,3.65
2018-07-03T21:37:18.021Z,4.17
2018-07-03T21:39:49.177Z,3.77
2018-07-03T21:42:18.604Z,3.40
2018-07-03T21:44:48.539Z,4.10
2018-07-03T21:47:20.058Z,4.22
2018-07-03T21:49:48.412Z,4.40
2018-07-03T21:52:16.828Z,4.00
2018-07-03T21:55:03.718Z,4.75
2018-07-03T21:57:33.269Z,4.40
2018-07-03T22:00:01.768Z,4.20
2018-07-03T22:02:40.536Z,4.45
2018-07-03T22:05:10.381Z,4.17
2018-07-03T22:07:39.684Z,4.08
2018-07-03T22:10:11.050Z,4.03
2018-07-03T22:12:39.500Z,5.00
2018-07-03T22:15:13.340Z,4.22
2018-07-03T22:17:42.353Z,4.12
2018-07-03T22:20:10.711Z,4.62
2018-07-03T22:22:38.810Z,4.62
2018-07-03T22:25:08.829Z,5.20
2018-07-03T22:27:38.582Z,4.08
2018-07-03T22:30:08.405Z,4.47
2018-07-03T22:32:36.833Z,5.70
2018-07-03T22:35:15.314Z,5.17
2018-07-03T22:37:44.937Z,5.80
2018-07-03T22:40:13.109Z,5.62
2018-07-03T22:42:41.180Z,4.90
2018-07-03T22:45:10.588Z,4.97
2018-07-03T22:47:40.293Z,4.65
2018-07-03T22:50:09.521Z,4.70
2018-07-03T22:52:37.958Z,5.28
2018-07-03T22:55:08.140Z,5.00
2018-07-03T22:57:39.654Z,5.20
2018-07-03T23:00:07.867Z,6.08
2018-07-03T23:02:36.245Z,5.85
2018-07-03T23:05:16.871Z,5.37
2018-07-03T23:07:45.408Z,5.70
2018-07-03T23:10:14.944Z,5.37
2018-07-03T23:12:46.364Z,5.50
2018-07-03T23:15:14.744Z,5.72
2018-07-03T23:17:44.873Z,6.72
2018-07-03T23:20:14.521Z,6.42
2018-07-03T23:22:43.789Z,6.17
2018-07-03T23:25:14.937Z,5.30
2018-07-03T23:27:46.809Z,6.60
2018-07-03T23:30:15.141Z,5.10
2018-07-03T23:32:43.637Z,5.70
2018-07-03T23:35:15.973Z,5.12
2018-07-03T23:37:44.058Z,5.15
2018-07-03T23:40:13.251Z,6.10
2018-07-03T23:42:41.647Z,5.55
2018-07-03T23:45:10.944Z,5.40
2018-07-03T23:48:26.805Z,6.20
2018-07-03T23:51:15.480Z,5.78
2018-07-03T23:54:02.988Z,5.90
2018-07-03T23:56:50.496Z,5.60
2018-07-03T23:59:55.416Z,6.15
